Houlton, ME

12:14 AM EST on December 28, 2014 (GMT -0500)
Houlton International | Change Station
CLOSE
Current Station
Airport
Location: Houlton,
Elevation: 492 ft
Nearby Weather Stations

Elev 492 ft 46.12 °N, 67.79 °W | Updated 21 minutes ago

Overcast
Overcast
34 °F
Feels Like 28 °F
N
7
Wind Variable Wind from South

Today
High -- | Low -- °F
--% Chance of Precip.
Yesterday
High -- | Low -- °F
Precip. -- in
7:13 AM 3:52 PM
Waxing Crescent, 44% visible
Pressure 29.90 in
Visibility 10.0 miles
Clouds Overcast 4600 ft
Windchill 28 °F
Dew Point 27 °F
Humidity 75%
Rainfall 0.00 in
Snow Depth Not available.
UV 0 out of 12
Pollen .10 out of 12
Air Quality Not available.
Flu Activity Not available.
METAR KHUL 280453Z AUTO 19006KT 10SM OVC046 01/M03 A2988 RMK AO2 SLP124 T00111028 400501006

More Conditions Fewer Conditions

Pressure 29.90 in
Visibility 10.0 miles
Clouds Overcast 4600 ft
Windchill 28 °F
Dew Point 27 °F
Humidity 75%
Rainfall 0.00 in
Snow Depth Not available.
UV 0 out of 12
Pollen .10 out of 12
Air Quality Not available.
Flu Activity Not available.
METAR KHUL 280453Z AUTO 19006KT 10SM OVC046 01/M03 A2988 RMK AO2 SLP124 T00111028 400501006

More Conditions Fewer Conditions

10-Day Weather Forecast

Almanac

Astronomy

Dec. 28, 2014 Rise Set
Actual Time
Civil Twilight
Nautical Twilight
Astronomical Twilight
Moon
Length of Visible Light
Length of Day
Tomorrow will be .
, % of the Moon is Illuminated

Today's Extremes

State Highs State Lows

Community

WunderPhotos

Upload Photos

1,781,205 photos uploaded!

WunderBlogs® & News

Nearby

Air Quality

  Air Quality AQ Index Pollutant
Not available.

Snow Depth

Station Depth Elevation

Earthquake Activity

City Distance Mag. Time & Date
Minimum magnitude displayed is 2.5.

Coastal Water Temperatures

Place Temperature

Nearby Weather Stations